sensor_id;sensor_type;location;lat;lon;timestamp;temperature;humidity
23591;DHT22;11973;52.098;7.582;2023-01-01T00:01:15;15.80;99.90
23591;DHT22;11973;52.098;7.582;2023-01-01T00:03:41;15.80;99.90
23591;DHT22;11973;52.098;7.582;2023-01-01T00:06:08;15.80;99.90
23591;DHT22;11973;52.098;7.582;2023-01-01T00:08:35;15.80;99.90
23591;DHT22;11973;52.098;7.582;2023-01-01T00:11:05;15.80;99.90
23591;DHT22;11973;52.098;7.582;2023-01-01T00:13:31;15.90;99.90
23591;DHT22;11973;52.098;7.582;2023-01-01T00:16:06;15.90;99.90
23591;DHT22;11973;52.098;7.582;2023-01-01T00:18:32;15.90;99.90
23591;DHT22;11973;52.098;7.582;2023-01-01T00:21:12;16.00;99.90
23591;DHT22;11973;52.098;7.582;2023-01-01T00:23:38;15.90;99.90
23591;DHT22;11973;52.098;7.582;2023-01-01T00:26:12;16.00;99.90
23591;DHT22;11973;52.098;7.582;2023-01-01T00:28:39;16.00;99.90
23591;DHT22;11973;52.098;7.582;2023-01-01T00:31:06;16.00;99.90
23591;DHT22;11973;52.098;7.582;2023-01-01T00:33:32;16.00;99.90
23591;DHT22;11973;52.098;7.582;2023-01-01T00:36:08;16.00;99.90
23591;DHT22;11973;52.098;7.582;2023-01-01T00:38:34;16.10;99.90
23591;DHT22;11973;52.098;7.582;2023-01-01T00:41:00;16.00;99.90
23591;DHT22;11973;52.098;7.582;2023-01-01T00:43:26;16.10;99.90
23591;DHT22;11973;52.098;7.582;2023-01-01T00:45:52;16.20;99.90
23591;DHT22;11973;52.098;7.582;2023-01-01T00:48:18;16.10;99.90
23591;DHT22;11973;52.098;7.582;2023-01-01T00:50:46;16.10;99.90
23591;DHT22;11973;52.098;7.582;2023-01-01T00:53:12;16.10;99.90
23591;DHT22;11973;52.098;7.582;2023-01-01T00:55:41;16.10;99.90
23591;DHT22;11973;52.098;7.582;2023-01-01T00:58:07;16.10;99.90
23591;DHT22;11973;52.098;7.582;2023-01-01T01:00:33;16.10;99.90
23591;DHT22;11973;52.098;7.582;2023-01-01T01:02:59;16.20;99.90
23591;DHT22;11973;52.098;7.582;2023-01-01T01:05:25;16.10;99.90
23591;DHT22;11973;52.098;7.582;2023-01-01T01:07:51;16.10;99.90
23591;DHT22;11973;52.098;7.582;2023-01-01T01:10:16;16.10;99.90
23591;DHT22;11973;52.098;7.582;2023-01-01T01:12:43;16.10;99.90
23591;DHT22;11973;52.098;7.582;2023-01-01T01:15:09;16.10;99.90
23591;DHT22;11973;52.098;7.582;2023-01-01T01:17:35;16.10;99.90
23591;DHT22;11973;52.098;7.582;2023-01-01T01:20:01;16.10;99.90
23591;DHT22;11973;52.098;7.582;2023-01-01T01:22:27;16.10;99.90
23591;DHT22;11973;52.098;7.582;2023-01-01T01:24:53;16.30;99.90
23591;DHT22;11973;52.098;7.582;2023-01-01T01:27:19;16.10;99.90
23591;DHT22;11973;52.098;7.582;2023-01-01T01:29:44;16.10;99.90
23591;DHT22;11973;52.098;7.582;2023-01-01T01:32:11;16.10;99.90
23591;DHT22;11973;52.098;7.582;2023-01-01T01:34:37;16.00;99.90
23591;DHT22;11973;52.098;7.582;2023-01-01T01:37:03;16.30;99.90
23591;DHT22;11973;52.098;7.582;2023-01-01T01:39:28;16.00;99.90
23591;DHT22;11973;52.098;7.582;2023-01-01T01:41:54;16.10;99.90
23591;DHT22;11973;52.098;7.582;2023-01-01T01:49:43;16.00;99.90
23591;DHT22;11973;52.098;7.582;2023-01-01T01:52:09;16.00;99.90
23591;DHT22;11973;52.098;7.582;2023-01-01T01:54:36;16.20;99.90
23591;DHT22;11973;52.098;7.582;2023-01-01T01:57:04;16.00;99.90
23591;DHT22;11973;52.098;7.582;2023-01-01T01:59:37;16.00;99.90
23591;DHT22;11973;52.098;7.582;2023-01-01T02:02:12;16.00;99.90
23591;DHT22;11973;52.098;7.582;2023-01-01T02:04:40;16.10;99.90
23591;DHT22;11973;52.098;7.582;2023-01-01T02:07:06;16.00;99.90
23591;DHT22;11973;52.098;7.582;2023-01-01T02:09:32;16.00;99.90
23591;DHT22;11973;52.098;7.582;2023-01-01T02:11:58;16.00;99.90
23591;DHT22;11973;52.098;7.582;2023-01-01T02:14:24;16.00;99.90
23591;DHT22;11973;52.098;7.582;2023-01-01T02:16:56;16.00;99.90
23591;DHT22;11973;52.098;7.582;2023-01-01T02:22:06;16.00;99.90
23591;DHT22;11973;52.098;7.582;2023-01-01T02:30:07;15.90;99.90
23591;DHT22;11973;52.098;7.582;2023-01-01T02:32:46;15.90;99.90
23591;DHT22;11973;52.098;7.582;2023-01-01T02:35:38;15.80;99.90
23591;DHT22;11973;52.098;7.582;2023-01-01T02:40:47;15.80;99.90
23591;DHT22;11973;52.098;7.582;2023-01-01T02:43:14;15.80;99.90
23591;DHT22;11973;52.098;7.582;2023-01-01T02:45:39;15.70;99.90
23591;DHT22;11973;52.098;7.582;2023-01-01T02:48:34;15.70;99.90
23591;DHT22;11973;52.098;7.582;2023-01-01T02:50:52;15.70;99.90
23591;DHT22;11973;52.098;7.582;2023-01-01T02:53:29;15.70;99.90
23591;DHT22;11973;52.098;7.582;2023-01-01T02:56:16;15.70;99.90
23591;DHT22;11973;52.098;7.582;2023-01-01T02:58:51;15.70;99.90
23591;DHT22;11973;52.098;7.582;2023-01-01T03:01:48;15.70;99.90
23591;DHT22;11973;52.098;7.582;2023-01-01T03:04:27;15.70;99.90
23591;DHT22;11973;52.098;7.582;2023-01-01T03:07:10;15.70;99.90
23591;DHT22;11973;52.098;7.582;2023-01-01T03:12:44;15.70;99.90
23591;DHT22;11973;52.098;7.582;2023-01-01T03:20:38;15.70;99.90
23591;DHT22;11973;52.098;7.582;2023-01-01T03:23:13;15.70;99.90
23591;DHT22;11973;52.098;7.582;2023-01-01T03:25:50;15.60;99.90
23591;DHT22;11973;52.098;7.582;2023-01-01T03:28:24;15.60;99.90
23591;DHT22;11973;52.098;7.582;2023-01-01T03:30:52;15.60;99.90
23591;DHT22;11973;52.098;7.582;2023-01-01T03:36:37;15.50;99.90
23591;DHT22;11973;52.098;7.582;2023-01-01T03:39:09;15.50;99.90
23591;DHT22;11973;52.098;7.582;2023-01-01T03:41:57;15.50;99.90
23591;DHT22;11973;52.098;7.582;2023-01-01T03:44:35;15.40;99.90
23591;DHT22;11973;52.098;7.582;2023-01-01T03:47:04;15.40;99.90
23591;DHT22;11973;52.098;7.582;2023-01-01T03:49:30;15.40;99.90
23591;DHT22;11973;52.098;7.582;2023-01-01T03:58:11;15.40;99.90
23591;DHT22;11973;52.098;7.582;2023-01-01T04:00:48;15.40;99.90
23591;DHT22;11973;52.098;7.582;2023-01-01T04:03:27;15.40;99.90
23591;DHT22;11973;52.098;7.582;2023-01-01T04:05:53;15.40;99.90
23591;DHT22;11973;52.098;7.582;2023-01-01T04:08:20;15.40;99.90
23591;DHT22;11973;52.098;7.582;2023-01-01T04:10:49;15.40;99.90
23591;DHT22;11973;52.098;7.582;2023-01-01T04:13:15;15.40;99.90
23591;DHT22;11973;52.098;7.582;2023-01-01T04:15:41;15.30;99.90
23591;DHT22;11973;52.098;7.582;2023-01-01T04:18:07;15.30;99.90
23591;DHT22;11973;52.098;7.582;2023-01-01T04:20:33;15.30;99.90
23591;DHT22;11973;52.098;7.582;2023-01-01T04:23:00;15.30;99.90
23591;DHT22;11973;52.098;7.582;2023-01-01T04:25:27;15.30;99.90
23591;DHT22;11973;52.098;7.582;2023-01-01T04:27:53;15.30;99.90
23591;DHT22;11973;52.098;7.582;2023-01-01T04:30:19;15.30;99.90
23591;DHT22;11973;52.098;7.582;2023-01-01T04:32:45;15.30;99.90
23591;DHT22;11973;52.098;7.582;2023-01-01T04:35:12;15.30;99.90
23591;DHT22;11973;52.098;7.582;2023-01-01T04:37:40;15.30;99.90
23591;DHT22;11973;52.098;7.582;2023-01-01T04:40:07;15.20;99.90
23591;DHT22;11973;52.098;7.582;2023-01-01T04:42:33;15.30;99.90
23591;DHT22;11973;52.098;7.582;2023-01-01T04:44:59;15.20;99.90
23591;DHT22;11973;52.098;7.582;2023-01-01T04:47:25;15.20;99.90
23591;DHT22;11973;52.098;7.582;2023-01-01T04:49:54;15.20;99.90
23591;DHT22;11973;52.098;7.582;2023-01-01T04:52:20;15.20;99.90
23591;DHT22;11973;52.098;7.582;2023-01-01T04:54:45;15.20;99.90
23591;DHT22;11973;52.098;7.582;2023-01-01T04:57:12;15.20;99.90
23591;DHT22;11973;52.098;7.582;2023-01-01T04:59:38;15.20;99.90
23591;DHT22;11973;52.098;7.582;2023-01-01T05:02:05;15.20;99.90
23591;DHT22;11973;52.098;7.582;2023-01-01T05:04:30;15.20;99.90
23591;DHT22;11973;52.098;7.582;2023-01-01T05:06:56;15.20;99.90
23591;DHT22;11973;52.098;7.582;2023-01-01T05:09:22;15.10;99.90
23591;DHT22;11973;52.098;7.582;2023-01-01T05:11:47;15.10;99.90
23591;DHT22;11973;52.098;7.582;2023-01-01T05:14:13;15.10;99.90
23591;DHT22;11973;52.098;7.582;2023-01-01T06:16:03;14.90;99.90
23591;DHT22;11973;52.098;7.582;2023-01-01T06:18:31;14.90;99.90
23591;DHT22;11973;52.098;7.582;2023-01-01T06:21:18;14.90;99.90
23591;DHT22;11973;52.098;7.582;2023-01-01T06:23:45;14.90;99.90
23591;DHT22;11973;52.098;7.582;2023-01-01T06:26:16;14.80;99.90
23591;DHT22;11973;52.098;7.582;2023-01-01T06:28:43;14.80;99.90
23591;DHT22;11973;52.098;7.582;2023-01-01T06:31:10;14.80;99.90
23591;DHT22;11973;52.098;7.582;2023-01-01T06:33:37;14.90;99.90
23591;DHT22;11973;52.098;7.582;2023-01-01T06:36:05;14.80;99.90
23591;DHT22;11973;52.098;7.582;2023-01-01T06:38:32;14.80;99.90
23591;DHT22;11973;52.098;7.582;2023-01-01T06:41:00;14.80;99.90
23591;DHT22;11973;52.098;7.582;2023-01-01T06:43:28;14.80;99.90
23591;DHT22;11973;52.098;7.582;2023-01-01T06:46:04;14.90;99.90
23591;DHT22;11973;52.098;7.582;2023-01-01T06:48:32;14.70;99.90
23591;DHT22;11973;52.098;7.582;2023-01-01T06:51:25;14.80;99.90
23591;DHT22;11973;52.098;7.582;2023-01-01T06:53:50;14.80;99.90
23591;DHT22;11973;52.098;7.582;2023-01-01T06:56:17;14.70;99.90
23591;DHT22;11973;52.098;7.582;2023-01-01T06:58:43;14.80;99.90
23591;DHT22;11973;52.098;7.582;2023-01-01T07:01:13;14.80;99.90
23591;DHT22;11973;52.098;7.582;2023-01-01T07:03:40;14.70;99.90
23591;DHT22;11973;52.098;7.582;2023-01-01T07:06:06;14.70;99.90
23591;DHT22;11973;52.098;7.582;2023-01-01T07:08:33;14.80;99.90
23591;DHT22;11973;52.098;7.582;2023-01-01T07:10:59;14.80;99.90
23591;DHT22;11973;52.098;7.582;2023-01-01T07:13:26;14.80;99.90
23591;DHT22;11973;52.098;7.582;2023-01-01T07:15:52;14.80;99.90
23591;DHT22;11973;52.098;7.582;2023-01-01T07:18:19;14.80;99.90
23591;DHT22;11973;52.098;7.582;2023-01-01T07:20:51;15.00;99.90
23591;DHT22;11973;52.098;7.582;2023-01-01T07:23:17;14.80;99.90
23591;DHT22;11973;52.098;7.582;2023-01-01T07:25:43;14.80;99.90
23591;DHT22;11973;52.098;7.582;2023-01-01T07:28:09;15.00;99.90
23591;DHT22;11973;52.098;7.582;2023-01-01T07:30:35;14.80;99.90
23591;DHT22;11973;52.098;7.582;2023-01-01T07:33:01;14.70;99.90
23591;DHT22;11973;52.098;7.582;2023-01-01T07:35:26;14.70;99.90
23591;DHT22;11973;52.098;7.582;2023-01-01T07:37:52;14.70;99.90
23591;DHT22;11973;52.098;7.582;2023-01-01T07:40:18;14.70;99.90
23591;DHT22;11973;52.098;7.582;2023-01-01T07:42:43;14.70;99.90
23591;DHT22;11973;52.098;7.582;2023-01-01T07:45:12;14.70;99.90
23591;DHT22;11973;52.098;7.582;2023-01-01T07:47:37;14.70;99.90
23591;DHT22;11973;52.098;7.582;2023-01-01T07:50:05;14.70;99.90
23591;DHT22;11973;52.098;7.582;2023-01-01T07:52:31;14.70;99.90
23591;DHT22;11973;52.098;7.582;2023-01-01T07:54:56;14.80;99.90
23591;DHT22;11973;52.098;7.582;2023-01-01T07:57:22;14.60;99.90
23591;DHT22;11973;52.098;7.582;2023-01-01T07:59:48;14.60;99.90
23591;DHT22;11973;52.098;7.582;2023-01-01T08:02:13;14.50;99.90
23591;DHT22;11973;52.098;7.582;2023-01-01T08:04:39;14.40;99.90
23591;DHT22;11973;52.098;7.582;2023-01-01T08:07:05;14.30;99.90
23591;DHT22;11973;52.098;7.582;2023-01-01T08:09:31;14.30;99.90
23591;DHT22;11973;52.098;7.582;2023-01-01T08:11:56;14.10;99.90
23591;DHT22;11973;52.098;7.582;2023-01-01T08:14:23;14.10;99.90
23591;DHT22;11973;52.098;7.582;2023-01-01T08:16:52;14.00;99.90
23591;DHT22;11973;52.098;7.582;2023-01-01T08:19:17;13.90;99.90
23591;DHT22;11973;52.098;7.582;2023-01-01T08:21:43;13.80;99.90
23591;DHT22;11973;52.098;7.582;2023-01-01T08:24:09;13.60;99.90
23591;DHT22;11973;52.098;7.582;2023-01-01T08:26:35;13.70;99.90
23591;DHT22;11973;52.098;7.582;2023-01-01T08:29:03;13.80;99.90
23591;DHT22;11973;52.098;7.582;2023-01-01T08:31:29;13.50;99.90
23591;DHT22;11973;52.098;7.582;2023-01-01T08:33:54;13.50;99.90
23591;DHT22;11973;52.098;7.582;2023-01-01T08:36:20;13.40;99.90
23591;DHT22;11973;52.098;7.582;2023-01-01T08:38:46;13.40;99.90
23591;DHT22;11973;52.098;7.582;2023-01-01T08:41:12;13.50;99.90
23591;DHT22;11973;52.098;7.582;2023-01-01T08:43:37;13.20;99.90
23591;DHT22;11973;52.098;7.582;2023-01-01T08:46:03;13.10;99.90
23591;DHT22;11973;52.098;7.582;2023-01-01T08:48:29;13.00;99.90
23591;DHT22;11973;52.098;7.582;2023-01-01T08:50:56;13.10;99.90
23591;DHT22;11973;52.098;7.582;2023-01-01T08:53:25;13.10;99.90
23591;DHT22;11973;52.098;7.582;2023-01-01T08:55:57;12.90;99.90
23591;DHT22;11973;52.098;7.582;2023-01-01T08:58:23;12.80;99.90
23591;DHT22;11973;52.098;7.582;2023-01-01T09:00:49;12.80;99.90
23591;DHT22;11973;52.098;7.582;2023-01-01T09:03:16;12.80;99.90
23591;DHT22;11973;52.098;7.582;2023-01-01T09:05:41;12.80;99.90
23591;DHT22;11973;52.098;7.582;2023-01-01T09:08:13;12.80;99.90
23591;DHT22;11973;52.098;7.582;2023-01-01T09:10:40;13.00;99.90
23591;DHT22;11973;52.098;7.582;2023-01-01T09:13:09;12.80;99.90
23591;DHT22;11973;52.098;7.582;2023-01-01T09:15:34;12.70;99.90
23591;DHT22;11973;52.098;7.582;2023-01-01T09:18:00;12.70;99.90
23591;DHT22;11973;52.098;7.582;2023-01-01T09:20:26;12.80;99.90
23591;DHT22;11973;52.098;7.582;2023-01-01T09:22:52;12.70;99.90
23591;DHT22;11973;52.098;7.582;2023-01-01T09:25:17;12.70;99.90
23591;DHT22;11973;52.098;7.582;2023-01-01T09:27:43;12.70;99.90
23591;DHT22;11973;52.098;7.582;2023-01-01T09:30:10;12.80;99.90
23591;DHT22;11973;52.098;7.582;2023-01-01T09:32:36;12.80;99.90
23591;DHT22;11973;52.098;7.582;2023-01-01T09:35:02;12.80;99.90
23591;DHT22;11973;52.098;7.582;2023-01-01T09:37:28;12.80;99.90
23591;DHT22;11973;52.098;7.582;2023-01-01T09:39:54;12.80;99.90
23591;DHT22;11973;52.098;7.582;2023-01-01T09:42:43;12.80;99.90
23591;DHT22;11973;52.098;7.582;2023-01-01T09:45:32;12.80;99.90
23591;DHT22;11973;52.098;7.582;2023-01-01T09:48:07;12.80;99.90
23591;DHT22;11973;52.098;7.582;2023-01-01T09:50:38;12.80;99.90
23591;DHT22;11973;52.098;7.582;2023-01-01T09:55:56;12.70;99.90
23591;DHT22;11973;52.098;7.582;2023-01-01T09:58:26;12.70;99.90
23591;DHT22;11973;52.098;7.582;2023-01-01T10:00:55;12.70;99.90
23591;DHT22;11973;52.098;7.582;2023-01-01T10:12:34;12.60;99.90
23591;DHT22;11973;52.098;7.582;2023-01-01T10:15:11;12.60;99.90
23591;DHT22;11973;52.098;7.582;2023-01-01T10:17:50;12.60;99.90
23591;DHT22;11973;52.098;7.582;2023-01-01T10:20:34;12.60;99.90
23591;DHT22;11973;52.098;7.582;2023-01-01T10:23:18;12.50;99.90
23591;DHT22;11973;52.098;7.582;2023-01-01T10:25:45;12.50;99.90
23591;DHT22;11973;52.098;7.582;2023-01-01T10:28:22;12.50;99.90
23591;DHT22;11973;52.098;7.582;2023-01-01T10:30:52;12.50;99.90
23591;DHT22;11973;52.098;7.582;2023-01-01T10:33:21;12.40;99.90
23591;DHT22;11973;52.098;7.582;2023-01-01T10:35:52;12.40;99.90
23591;DHT22;11973;52.098;7.582;2023-01-01T10:38:25;12.40;99.90
23591;DHT22;11973;52.098;7.582;2023-01-01T10:40:55;12.30;99.90
23591;DHT22;11973;52.098;7.582;2023-01-01T10:43:21;12.30;99.90
23591;DHT22;11973;52.098;7.582;2023-01-01T10:45:52;12.30;99.90
23591;DHT22;11973;52.098;7.582;2023-01-01T10:48:21;12.50;99.90
23591;DHT22;11973;52.098;7.582;2023-01-01T10:56:13;12.30;99.90
23591;DHT22;11973;52.098;7.582;2023-01-01T10:58:56;12.40;99.90
23591;DHT22;11973;52.098;7.582;2023-01-01T11:01:25;12.30;99.90
23591;DHT22;11973;52.098;7.582;2023-01-01T11:06:46;12.30;99.90
23591;DHT22;11973;52.098;7.582;2023-01-01T11:09:19;12.30;99.90
23591;DHT22;11973;52.098;7.582;2023-01-01T11:11:48;12.30;99.90
23591;DHT22;11973;52.098;7.582;2023-01-01T11:14:37;12.30;99.90
23591;DHT22;11973;52.098;7.582;2023-01-01T11:17:07;12.40;99.90
23591;DHT22;11973;52.098;7.582;2023-01-01T11:19:38;12.30;99.90
23591;DHT22;11973;52.098;7.582;2023-01-01T11:22:06;12.30;99.90
23591;DHT22;11973;52.098;7.582;2023-01-01T11:24:35;12.50;99.90
23591;DHT22;11973;52.098;7.582;2023-01-01T11:27:21;12.30;99.90
23591;DHT22;11973;52.098;7.582;2023-01-01T11:29:48;12.30;99.90
23591;DHT22;11973;52.098;7.582;2023-01-01T11:32:22;12.40;99.90
23591;DHT22;11973;52.098;7.582;2023-01-01T11:34:57;12.40;99.90
23591;DHT22;11973;52.098;7.582;2023-01-01T11:37:33;12.50;99.90
23591;DHT22;11973;52.098;7.582;2023-01-01T11:40:04;12.50;99.90
23591;DHT22;11973;52.098;7.582;2023-01-01T11:42:35;12.60;99.90
23591;DHT22;11973;52.098;7.582;2023-01-01T11:45:18;12.70;99.90
23591;DHT22;11973;52.098;7.582;2023-01-01T11:47:50;12.90;99.90
23591;DHT22;11973;52.098;7.582;2023-01-01T11:50:32;13.00;99.90
23591;DHT22;11973;52.098;7.582;2023-01-01T12:00:58;13.30;99.90
23591;DHT22;11973;52.098;7.582;2023-01-01T12:03:41;13.40;99.90
23591;DHT22;11973;52.098;7.582;2023-01-01T12:06:19;13.50;99.90
23591;DHT22;11973;52.098;7.582;2023-01-01T12:12:33;13.50;99.90
23591;DHT22;11973;52.098;7.582;2023-01-01T12:23:33;13.60;99.90
23591;DHT22;11973;52.098;7.582;2023-01-01T12:43:07;13.90;99.90
23591;DHT22;11973;52.098;7.582;2023-01-01T12:45:54;14.00;99.90
23591;DHT22;11973;52.098;7.582;2023-01-01T12:51:49;14.00;99.90
23591;DHT22;11973;52.098;7.582;2023-01-01T12:57:32;14.10;99.90
23591;DHT22;11973;52.098;7.582;2023-01-01T13:00:03;14.10;99.90
23591;DHT22;11973;52.098;7.582;2023-01-01T13:02:37;14.20;99.90
23591;DHT22;11973;52.098;7.582;2023-01-01T13:05:15;14.20;99.90
23591;DHT22;11973;52.098;7.582;2023-01-01T13:07:45;14.20;99.90
23591;DHT22;11973;52.098;7.582;2023-01-01T13:10:25;14.20;99.90
23591;DHT22;11973;52.098;7.582;2023-01-01T13:12:55;14.20;99.90
23591;DHT22;11973;52.098;7.582;2023-01-01T13:18:26;14.30;99.90
23591;DHT22;11973;52.098;7.582;2023-01-01T13:20:54;14.30;99.90
23591;DHT22;11973;52.098;7.582;2023-01-01T13:23:41;14.30;99.90
23591;DHT22;11973;52.098;7.582;2023-01-01T13:45:38;14.00;99.90
23591;DHT22;11973;52.098;7.582;2023-01-01T13:48:40;14.00;99.90
23591;DHT22;11973;52.098;7.582;2023-01-01T13:56:48;13.80;99.90
23591;DHT22;11973;52.098;7.582;2023-01-01T14:02:21;13.70;99.90
23591;DHT22;11973;52.098;7.582;2023-01-01T14:07:49;13.70;99.90
23591;DHT22;11973;52.098;7.582;2023-01-01T14:12:51;13.60;99.90
23591;DHT22;11973;52.098;7.582;2023-01-01T14:15:50;13.60;99.90
23591;DHT22;11973;52.098;7.582;2023-01-01T14:18:17;13.70;99.90
23591;DHT22;11973;52.098;7.582;2023-01-01T14:20:50;13.60;99.90
23591;DHT22;11973;52.098;7.582;2023-01-01T14:23:32;13.60;99.90
23591;DHT22;11973;52.098;7.582;2023-01-01T14:26:00;13.60;99.90
23591;DHT22;11973;52.098;7.582;2023-01-01T14:28:30;13.60;99.90
23591;DHT22;11973;52.098;7.582;2023-01-01T14:30:57;13.60;99.90
23591;DHT22;11973;52.098;7.582;2023-01-01T14:33:29;13.60;99.90
23591;DHT22;11973;52.098;7.582;2023-01-01T14:36:00;13.50;99.90
23591;DHT22;11973;52.098;7.582;2023-01-01T14:38:29;13.50;99.90
23591;DHT22;11973;52.098;7.582;2023-01-01T14:43:38;13.40;99.90
23591;DHT22;11973;52.098;7.582;2023-01-01T14:46:06;13.40;99.90
23591;DHT22;11973;52.098;7.582;2023-01-01T14:48:33;13.50;99.90
23591;DHT22;11973;52.098;7.582;2023-01-01T14:50:59;13.30;99.90
23591;DHT22;11973;52.098;7.582;2023-01-01T14:53:31;13.30;99.90
23591;DHT22;11973;52.098;7.582;2023-01-01T14:55:58;13.20;99.90
23591;DHT22;11973;52.098;7.582;2023-01-01T14:58:27;13.20;99.90
23591;DHT22;11973;52.098;7.582;2023-01-01T15:00:56;13.20;99.90
23591;DHT22;11973;52.098;7.582;2023-01-01T15:03:37;13.10;99.90
23591;DHT22;11973;52.098;7.582;2023-01-01T15:06:15;13.10;99.90
23591;DHT22;11973;52.098;7.582;2023-01-01T15:08:41;13.10;99.90
23591;DHT22;11973;52.098;7.582;2023-01-01T15:11:13;13.10;99.90
23591;DHT22;11973;52.098;7.582;2023-01-01T15:13:38;13.00;99.90
23591;DHT22;11973;52.098;7.582;2023-01-01T15:16:16;13.00;99.90
23591;DHT22;11973;52.098;7.582;2023-01-01T15:18:44;13.00;99.90
23591;DHT22;11973;52.098;7.582;2023-01-01T15:24:13;13.00;99.90
23591;DHT22;11973;52.098;7.582;2023-01-01T15:27:00;13.00;99.90
23591;DHT22;11973;52.098;7.582;2023-01-01T15:29:39;12.90;99.90
23591;DHT22;11973;52.098;7.582;2023-01-01T15:32:11;12.90;99.90
23591;DHT22;11973;52.098;7.582;2023-01-01T15:37:19;12.90;99.90
23591;DHT22;11973;52.098;7.582;2023-01-01T15:39:56;12.90;99.90
23591;DHT22;11973;52.098;7.582;2023-01-01T15:42:32;12.90;99.90
23591;DHT22;11973;52.098;7.582;2023-01-01T15:47:53;12.80;99.90
23591;DHT22;11973;52.098;7.582;2023-01-01T15:53:20;12.80;99.90
23591;DHT22;11973;52.098;7.582;2023-01-01T15:56:04;12.80;99.90
23591;DHT22;11973;52.098;7.582;2023-01-01T15:58:40;12.80;99.90
23591;DHT22;11973;52.098;7.582;2023-01-01T16:01:10;12.80;99.90
23591;DHT22;11973;52.098;7.582;2023-01-01T16:03:39;12.80;99.90
23591;DHT22;11973;52.098;7.582;2023-01-01T16:06:05;12.80;99.90
23591;DHT22;11973;52.098;7.582;2023-01-01T16:08:33;12.80;99.90
23591;DHT22;11973;52.098;7.582;2023-01-01T16:11:01;12.70;99.90
23591;DHT22;11973;52.098;7.582;2023-01-01T16:13:27;12.70;99.90
23591;DHT22;11973;52.098;7.582;2023-01-01T16:15:56;12.70;99.90
23591;DHT22;11973;52.098;7.582;2023-01-01T16:18:27;12.70;99.90
23591;DHT22;11973;52.098;7.582;2023-01-01T16:20:54;12.70;99.90
23591;DHT22;11973;52.098;7.582;2023-01-01T16:23:20;12.80;99.90
23591;DHT22;11973;52.098;7.582;2023-01-01T16:25:46;12.50;99.90
23591;DHT22;11973;52.098;7.582;2023-01-01T16:28:13;12.60;99.90
23591;DHT22;11973;52.098;7.582;2023-01-01T16:30:39;12.60;99.90
23591;DHT22;11973;52.098;7.582;2023-01-01T16:33:16;12.60;99.90
23591;DHT22;11973;52.098;7.582;2023-01-01T16:35:43;12.60;99.90
23591;DHT22;11973;52.098;7.582;2023-01-01T16:38:09;12.60;99.90
23591;DHT22;11973;52.098;7.582;2023-01-01T16:40:35;12.60;99.90
23591;DHT22;11973;52.098;7.582;2023-01-01T16:43:01;12.60;99.90
23591;DHT22;11973;52.098;7.582;2023-01-01T16:45:27;12.60;99.90
23591;DHT22;11973;52.098;7.582;2023-01-01T16:47:53;12.60;99.90
23591;DHT22;11973;52.098;7.582;2023-01-01T16:50:20;12.60;99.90
23591;DHT22;11973;52.098;7.582;2023-01-01T16:52:46;12.60;99.90
23591;DHT22;11973;52.098;7.582;2023-01-01T16:55:12;12.50;99.90
23591;DHT22;11973;52.098;7.582;2023-01-01T16:57:39;12.50;99.90
23591;DHT22;11973;52.098;7.582;2023-01-01T17:00:06;12.70;99.90
23591;DHT22;11973;52.098;7.582;2023-01-01T17:02:31;12.50;99.90
23591;DHT22;11973;52.098;7.582;2023-01-01T17:04:57;12.50;99.90
23591;DHT22;11973;52.098;7.582;2023-01-01T17:07:23;12.50;99.90
23591;DHT22;11973;52.098;7.582;2023-01-01T17:09:48;12.50;99.90
23591;DHT22;11973;52.098;7.582;2023-01-01T17:12:14;12.50;99.90
23591;DHT22;11973;52.098;7.582;2023-01-01T17:14:40;12.50;99.90
23591;DHT22;11973;52.098;7.582;2023-01-01T17:17:06;12.50;99.90
23591;DHT22;11973;52.098;7.582;2023-01-01T17:19:31;12.50;99.90
23591;DHT22;11973;52.098;7.582;2023-01-01T17:21:57;12.50;99.90
23591;DHT22;11973;52.098;7.582;2023-01-01T17:24:23;12.60;99.90
23591;DHT22;11973;52.098;7.582;2023-01-01T17:26:50;12.50;99.90
23591;DHT22;11973;52.098;7.582;2023-01-01T17:29:18;12.60;99.90
23591;DHT22;11973;52.098;7.582;2023-01-01T17:31:43;12.60;99.90
23591;DHT22;11973;52.098;7.582;2023-01-01T17:34:13;12.60;99.90
23591;DHT22;11973;52.098;7.582;2023-01-01T17:36:43;12.60;99.90
23591;DHT22;11973;52.098;7.582;2023-01-01T17:39:10;12.60;99.90
23591;DHT22;11973;52.098;7.582;2023-01-01T17:41:37;12.60;99.90
23591;DHT22;11973;52.098;7.582;2023-01-01T17:44:03;12.70;99.90
23591;DHT22;11973;52.098;7.582;2023-01-01T17:46:29;12.60;99.90
23591;DHT22;11973;52.098;7.582;2023-01-01T17:49:02;12.60;99.90
23591;DHT22;11973;52.098;7.582;2023-01-01T17:51:29;12.60;99.90
23591;DHT22;11973;52.098;7.582;2023-01-01T17:53:55;12.60;99.90
23591;DHT22;11973;52.098;7.582;2023-01-01T17:56:22;12.60;99.90
23591;DHT22;11973;52.098;7.582;2023-01-01T17:58:50;12.60;99.90
23591;DHT22;11973;52.098;7.582;2023-01-01T18:01:25;12.50;99.90
23591;DHT22;11973;52.098;7.582;2023-01-01T18:03:56;12.50;99.90
23591;DHT22;11973;52.098;7.582;2023-01-01T18:06:23;12.50;99.90
23591;DHT22;11973;52.098;7.582;2023-01-01T18:08:54;12.70;99.90
23591;DHT22;11973;52.098;7.582;2023-01-01T18:11:20;12.50;99.90
23591;DHT22;11973;52.098;7.582;2023-01-01T18:13:46;12.40;99.90
23591;DHT22;11973;52.098;7.582;2023-01-01T18:16:12;12.40;99.90
23591;DHT22;11973;52.098;7.582;2023-01-01T18:18:38;12.40;99.90
23591;DHT22;11973;52.098;7.582;2023-01-01T18:21:06;12.40;99.90
23591;DHT22;11973;52.098;7.582;2023-01-01T18:23:37;12.50;99.90
23591;DHT22;11973;52.098;7.582;2023-01-01T18:26:06;12.30;99.90
23591;DHT22;11973;52.098;7.582;2023-01-01T18:28:33;12.30;99.90
23591;DHT22;11973;52.098;7.582;2023-01-01T18:31:06;12.30;99.90
23591;DHT22;11973;52.098;7.582;2023-01-01T18:33:35;12.20;99.90
23591;DHT22;11973;52.098;7.582;2023-01-01T18:36:12;12.20;99.90
23591;DHT22;11973;52.098;7.582;2023-01-01T18:38:40;12.20;99.90
23591;DHT22;11973;52.098;7.582;2023-01-01T18:43:42;12.10;99.90
23591;DHT22;11973;52.098;7.582;2023-01-01T18:46:09;12.10;99.90
23591;DHT22;11973;52.098;7.582;2023-01-01T18:48:35;12.10;99.90
23591;DHT22;11973;52.098;7.582;2023-01-01T18:51:09;12.10;99.90
23591;DHT22;11973;52.098;7.582;2023-01-01T18:53:37;12.10;99.90
23591;DHT22;11973;52.098;7.582;2023-01-01T18:56:11;12.10;99.90
23591;DHT22;11973;52.098;7.582;2023-01-01T18:58:41;12.00;99.90
23591;DHT22;11973;52.098;7.582;2023-01-01T19:01:26;12.00;99.90
23591;DHT22;11973;52.098;7.582;2023-01-01T19:03:59;12.00;99.90
23591;DHT22;11973;52.098;7.582;2023-01-01T19:06:32;12.00;99.90
23591;DHT22;11973;52.098;7.582;2023-01-01T19:11:37;11.90;99.90
23591;DHT22;11973;52.098;7.582;2023-01-01T19:14:23;11.90;99.90
23591;DHT22;11973;52.098;7.582;2023-01-01T19:16:53;11.90;99.90
23591;DHT22;11973;52.098;7.582;2023-01-01T19:19:23;11.90;99.90